createdAt,value
2023-11-01T00:00:25.501Z,98506.28
2023-11-01T00:02:58.522Z,98503.63
2023-11-01T00:05:31.918Z,98509.09
2023-11-01T00:08:05.124Z,98499.03
2023-11-01T00:10:38.196Z,98504.41
2023-11-01T00:13:12.452Z,98506.97
2023-11-01T00:15:45.500Z,98511.78
2023-11-01T00:18:21.782Z,98500.38
2023-11-01T00:20:54.961Z,98511.47
2023-11-01T00:23:27.866Z,98512.91
2023-11-01T00:26:01.082Z,98511.88
2023-11-01T00:28:35.504Z,98508.78
2023-11-01T00:31:08.893Z,98505.19
2023-11-01T00:33:42.200Z,98510.69
2023-11-01T00:36:15.148Z,98506.09
2023-11-01T00:38:48.023Z,98509.88
2023-11-01T00:41:20.947Z,98498.06
2023-11-01T00:43:55.188Z,98502.06
2023-11-01T00:46:29.124Z,98498.16
2023-11-01T00:49:02.133Z,98502.69
2023-11-01T00:51:35.281Z,98504.59
2023-11-01T00:54:08.571Z,98507.03
2023-11-01T00:56:42.260Z,98510.06
2023-11-01T00:59:16.617Z,98503.81
2023-11-01T01:01:49.723Z,98497.25
2023-11-01T01:04:22.879Z,98496.38
2023-11-01T01:06:55.833Z,98491.56
2023-11-01T01:09:28.776Z,98496.00
2023-11-01T01:12:01.783Z,98488.53
2023-11-01T01:14:36.121Z,98491.09
2023-11-01T01:17:09.908Z,98495.44
2023-11-01T01:19:42.806Z,98491.88
2023-11-01T01:22:15.703Z,98489.66
2023-11-01T01:24:48.740Z,98479.47
2023-11-01T01:27:21.705Z,98469.09
2023-11-01T01:29:56.031Z,98477.16
2023-11-01T01:32:33.781Z,98477.94
2023-11-01T01:35:07.782Z,98479.16
2023-11-01T01:37:41.323Z,98476.47
2023-11-01T01:40:16.506Z,98474.13
2023-11-01T01:42:49.526Z,98473.47
2023-11-01T01:45:23.883Z,98478.81
2023-11-01T01:47:56.921Z,98476.13
2023-11-01T01:50:30.048Z,98471.78
2023-11-01T01:53:03.799Z,98471.31
2023-11-01T01:55:37.842Z,98469.34
2023-11-01T01:58:12.190Z,98463.84
2023-11-01T02:00:46.992Z,98460.28
2023-11-01T02:03:20.384Z,98455.72
2023-11-01T02:05:54.061Z,98461.06
2023-11-01T02:08:27.440Z,98463.75
2023-11-01T02:11:00.665Z,98460.50
2023-11-01T02:13:33.820Z,98466.06
2023-11-01T02:16:08.958Z,98459.28
2023-11-01T02:18:41.932Z,98460.84
2023-11-01T02:21:14.830Z,98451.56
2023-11-01T02:23:50.599Z,98444.53
2023-11-01T02:26:26.738Z,98448.22
2023-11-01T02:28:59.854Z,98441.50
2023-11-01T02:31:32.971Z,98438.63
2023-11-01T02:34:09.287Z,98434.25
2023-11-01T02:36:42.237Z,98428.25
2023-11-01T02:39:16.607Z,98437.03
2023-11-01T02:41:49.580Z,98417.16
2023-11-01T02:44:22.521Z,98414.16
2023-11-01T02:46:55.455Z,98418.94
2023-11-01T02:49:28.328Z,98423.09
2023-11-01T02:52:01.298Z,98416.06
2023-11-01T02:54:35.556Z,98406.78
2023-11-01T02:57:08.439Z,98405.69
2023-11-01T02:59:41.336Z,98409.03
2023-11-01T03:02:14.350Z,98398.28
2023-11-01T03:04:47.374Z,98397.41
2023-11-01T03:07:20.609Z,98397.53
2023-11-01T03:09:55.451Z,98393.16
2023-11-01T03:12:28.365Z,98396.41
2023-11-01T03:15:01.263Z,98383.91
2023-11-01T03:17:35.722Z,98374.19
2023-11-01T03:20:09.975Z,98385.03
2023-11-01T03:22:43.511Z,98388.81
2023-11-01T03:25:29.381Z,98389.34
2023-11-01T03:28:02.356Z,98386.56
2023-11-01T03:30:35.454Z,98374.84
2023-11-01T03:33:08.523Z,98385.91
2023-11-01T03:35:42.222Z,98378.00
2023-11-01T03:38:15.198Z,98393.81
2023-11-01T03:40:49.581Z,98385.69
2023-11-01T03:43:23.089Z,98397.16
2023-11-01T03:45:56.097Z,98394.38
2023-11-01T03:48:29.298Z,98388.38
2023-11-01T03:51:02.369Z,98391.81
2023-11-01T03:53:35.797Z,98386.00
2023-11-01T03:56:10.800Z,98375.63
2023-11-01T03:58:44.221Z,98376.97
2023-11-01T04:01:18.391Z,98363.59
2023-11-01T04:03:51.430Z,98366.69
2023-11-01T04:06:24.648Z,98370.59
2023-11-01T04:08:57.629Z,98377.53
2023-11-01T04:11:32.018Z,98366.28
2023-11-01T04:14:05.694Z,98370.75
2023-11-01T04:16:38.564Z,98373.16
2023-11-01T04:19:12.732Z,98365.91
2023-11-01T04:21:45.869Z,98358.88
2023-11-01T04:24:18.788Z,98352.06
2023-11-01T04:26:53.811Z,98351.28
2023-11-01T04:29:27.702Z,98349.72
2023-11-01T04:32:01.057Z,98344.59
2023-11-01T04:34:34.449Z,98335.66
2023-11-01T04:37:07.662Z,98323.81
2023-11-01T04:39:41.530Z,98322.56
2023-11-01T04:42:17.976Z,98325.59
2023-11-01T04:44:51.089Z,98331.53
2023-11-01T04:47:24.363Z,98324.84
2023-11-01T04:49:57.750Z,98333.44
2023-11-01T04:52:31.662Z,98327.53
2023-11-01T04:55:06.450Z,98340.22
2023-11-01T04:57:43.074Z,98326.97
2023-11-01T05:00:17.819Z,98331.84
2023-11-01T05:02:51.386Z,98325.59
2023-11-01T05:05:24.619Z,98325.16
2023-11-01T05:07:58.077Z,98323.38
2023-11-01T05:10:30.963Z,98312.41
2023-11-01T05:13:06.917Z,98308.75
2023-11-01T05:15:40.881Z,98308.41
2023-11-01T05:18:13.829Z,98310.75
2023-11-01T05:20:46.851Z,98307.19
2023-11-01T05:23:30.277Z,98309.50
2023-11-01T05:26:03.335Z,98303.59
2023-11-01T05:28:37.693Z,98308.88
2023-11-01T05:31:10.913Z,98315.56
2023-11-01T05:33:44.025Z,98316.03
2023-11-01T05:36:17.291Z,98315.56
2023-11-01T05:38:50.613Z,98316.03
2023-11-01T05:41:24.169Z,98309.88
2023-11-01T05:43:58.377Z,98311.09
2023-11-01T05:46:31.362Z,98311.19
2023-11-01T05:49:05.471Z,98311.59
2023-11-01T05:51:38.348Z,98316.44
2023-11-01T05:54:11.348Z,98319.47
2023-11-01T05:56:44.590Z,98310.53
2023-11-01T05:59:18.999Z,98310.88
2023-11-01T06:01:54.220Z,98310.75
2023-11-01T06:04:27.287Z,98309.97
2023-11-01T06:07:00.289Z,98315.88
2023-11-01T06:09:33.225Z,98318.34
2023-11-01T06:12:07.217Z,98321.69
2023-11-01T06:14:41.637Z,98323.47
2023-11-01T06:17:14.681Z,98321.78
2023-11-01T06:19:49.907Z,98311.09
2023-11-01T06:22:22.792Z,98309.63
2023-11-01T06:24:56.380Z,98304.47
2023-11-01T06:27:29.443Z,98312.13
2023-11-01T06:30:06.070Z,98320.34
2023-11-01T06:32:39.082Z,98321.03
2023-11-01T06:35:12.445Z,98315.09
2023-11-01T06:37:47.721Z,98310.19
2023-11-01T06:40:20.729Z,98307.63
2023-11-01T06:42:54.956Z,98308.84
2023-11-01T06:45:29.327Z,98311.53
2023-11-01T06:48:02.220Z,98320.09
2023-11-01T06:50:36.075Z,98318.41
2023-11-01T06:53:09.062Z,98310.72
2023-11-01T06:55:41.988Z,98307.00
2023-11-01T06:58:15.075Z,98304.75
2023-11-01T07:00:49.918Z,98317.94
2023-11-01T07:03:23.132Z,98305.28
2023-11-01T07:05:56.882Z,98310.31
2023-11-01T07:08:30.045Z,98313.41
2023-11-01T07:11:03.281Z,98317.91
2023-11-01T07:13:36.160Z,98317.53
2023-11-01T07:16:13.793Z,98310.25
2023-11-01T07:18:47.065Z,98314.81
2023-11-01T07:21:20.081Z,98314.81
2023-11-01T07:23:53.613Z,98311.47
2023-11-01T07:26:26.810Z,98313.94
2023-11-01T07:29:00.670Z,98320.59
2023-11-01T07:31:35.094Z,98317.91
2023-11-01T07:34:08.339Z,98314.38
2023-11-01T07:36:41.262Z,98313.72
2023-11-01T07:39:14.608Z,98316.84
2023-11-01T07:41:47.792Z,98315.75
2023-11-01T07:44:20.992Z,98313.13
2023-11-01T07:46:55.349Z,98304.34
2023-11-01T07:49:28.228Z,98305.56
2023-11-01T07:52:01.242Z,98297.97
2023-11-01T07:54:34.137Z,98277.84
2023-11-01T07:57:07.338Z,98292.16
2023-11-01T07:59:40.576Z,98297.97
2023-11-01T08:02:14.889Z,98299.56
2023-11-01T08:04:48.069Z,98297.09
2023-11-01T08:07:21.107Z,98305.47
2023-11-01T08:09:54.352Z,98302.19
2023-11-01T08:12:27.443Z,98308.72
2023-11-01T08:15:00.332Z,98303.97
2023-11-01T08:17:34.982Z,98306.19
2023-11-01T08:20:09.620Z,98309.94
2023-11-01T08:22:42.845Z,98317.78
2023-11-01T08:25:16.160Z,98316.06
2023-11-01T08:27:49.340Z,98310.03
2023-11-01T08:30:22.431Z,98312.72
2023-11-01T08:32:56.941Z,98306.22
2023-11-01T08:35:30.836Z,98311.69
2023-11-01T08:38:04.496Z,98308.63
2023-11-01T08:40:37.535Z,98307.28
2023-11-01T08:43:10.480Z,98315.22
2023-11-01T08:45:45.090Z,98305.72
2023-11-01T08:48:21.884Z,98303.69
2023-11-01T08:50:54.756Z,98303.19
2023-11-01T08:53:29.374Z,98308.72
2023-11-01T08:56:03.677Z,98311.72
2023-11-01T08:58:36.901Z,98301.56
2023-11-01T09:01:11.012Z,98300.34
2023-11-01T09:03:45.451Z,98298.22
2023-11-01T09:06:18.612Z,98305.66
2023-11-01T09:08:51.593Z,98294.84
2023-11-01T09:11:26.527Z,98295.56
2023-11-01T09:13:59.410Z,98291.50
2023-11-01T09:16:33.231Z,98284.91
2023-11-01T09:19:07.966Z,98283.25
2023-11-01T09:21:40.921Z,98282.53
2023-11-01T09:24:13.784Z,98276.13
2023-11-01T09:26:48.287Z,98277.03
2023-11-01T09:29:21.393Z,98278.97
2023-11-01T09:31:54.303Z,98277.44
2023-11-01T09:34:28.497Z,98274.47
2023-11-01T09:37:01.472Z,98279.34
2023-11-01T09:39:34.666Z,98276.13
2023-11-01T09:42:13.055Z,98282.91
2023-11-01T09:44:48.521Z,98270.19
2023-11-01T09:47:22.088Z,98274.34
2023-11-01T09:49:57.670Z,98267.28
2023-11-01T09:52:33.335Z,98274.94
2023-11-01T09:55:09.726Z,98283.88
2023-11-01T09:57:44.750Z,98290.94
2023-11-01T10:00:20.133Z,98291.63
2023-11-01T10:02:53.598Z,98289.72
2023-11-01T10:05:28.001Z,98290.44
2023-11-01T10:08:01.076Z,98278.84
2023-11-01T10:10:34.024Z,98282.75
2023-11-01T10:13:07.258Z,98275.38
2023-11-01T10:15:41.304Z,98275.03
2023-11-01T10:18:14.303Z,98271.13
2023-11-01T10:20:49.037Z,98268.59
2023-11-01T10:23:28.113Z,98278.25
2023-11-01T10:26:01.070Z,98267.53
2023-11-01T10:28:36.339Z,98268.44
2023-11-01T10:31:09.588Z,98265.28
2023-11-01T10:33:43.736Z,98252.41
2023-11-01T10:36:18.689Z,98248.38
2023-11-01T10:38:52.982Z,98250.66
2023-11-01T10:41:27.261Z,98244.06
2023-11-01T10:44:00.348Z,98239.50
2023-11-01T10:46:37.895Z,98230.75
2023-11-01T10:49:13.000Z,98235.28
2023-11-01T10:51:49.410Z,98230.38
2023-11-01T10:54:23.245Z,98221.47
2023-11-01T10:56:56.852Z,98219.09
2023-11-01T10:59:36.923Z,98213.66
2023-11-01T11:02:18.210Z,98213.06
2023-11-01T11:04:59.106Z,98203.16
2023-11-01T11:07:45.040Z,98198.88
2023-11-01T11:10:25.783Z,98195.50
2023-11-01T11:13:27.652Z,98200.22
2023-11-01T11:16:05.095Z,98183.63
2023-11-01T11:18:59.841Z,98185.25
2023-11-01T11:22:00.604Z,98188.56
2023-11-01T11:24:53.823Z,98189.31
2023-11-01T11:28:04.229Z,98182.66
2023-11-01T11:30:59.996Z,98168.09
2023-11-01T11:33:33.323Z,98166.25
2023-11-01T11:36:11.207Z,98155.91
2023-11-01T11:38:52.740Z,98155.91
2023-11-01T11:41:29.019Z,98145.16
2023-11-01T11:44:06.470Z,98135.63
2023-11-01T11:46:41.595Z,98136.41
2023-11-01T11:49:25.573Z,98134.78
2023-11-01T11:52:00.604Z,98141.59
2023-11-01T11:54:35.200Z,98130.47
2023-11-01T11:57:12.425Z,98123.19
2023-11-01T11:59:45.577Z,98127.97
2023-11-01T12:02:18.530Z,98125.03
2023-11-01T12:04:51.819Z,98125.19
2023-11-01T12:07:24.941Z,98126.53
2023-11-01T12:09:58.769Z,98125.63
2023-11-01T12:12:33.124Z,98129.78
2023-11-01T12:15:08.171Z,98113.34
2023-11-01T12:17:41.195Z,98111.63
2023-11-01T12:20:14.344Z,98101.44
2023-11-01T12:22:47.307Z,98100.91
2023-11-01T12:25:25.792Z,98094.28
2023-11-01T12:28:00.328Z,98094.97
2023-11-01T12:30:34.139Z,98083.78
2023-11-01T12:33:20.408Z,98079.47
2023-11-01T12:35:53.394Z,98070.34
2023-11-01T12:38:26.387Z,98071.56
2023-11-01T12:41:00.390Z,98065.22
2023-11-01T12:43:38.282Z,98063.91
2023-11-01T12:46:11.126Z,98070.69
2023-11-01T12:48:44.372Z,98060.22
2023-11-01T12:51:17.317Z,98060.44
2023-11-01T12:53:50.445Z,98058.53
2023-11-01T12:56:23.637Z,98059.22
2023-11-01T12:58:57.879Z,98051.03
2023-11-01T13:01:30.992Z,98046.94
2023-11-01T13:04:04.195Z,98046.78
2023-11-01T13:06:37.198Z,98040.88
2023-11-01T13:09:10.778Z,98038.56
2023-11-01T13:11:43.710Z,98025.22
2023-11-01T13:14:18.103Z,98024.72
2023-11-01T13:16:51.300Z,98014.78
2023-11-01T13:19:24.598Z,98022.47
2023-11-01T13:21:57.993Z,98019.50
2023-11-01T13:24:30.974Z,98015.81
2023-11-01T13:27:10.330Z,98009.78
2023-11-01T13:29:49.041Z,98011.94
2023-11-01T13:32:22.000Z,98006.84
2023-11-01T13:34:56.932Z,98007.69
2023-11-01T13:37:32.787Z,98003.91
2023-11-01T13:40:06.809Z,98000.38
2023-11-01T13:42:40.312Z,97994.72
2023-11-01T13:45:14.552Z,98004.25
2023-11-01T13:47:47.615Z,97994.59
2023-11-01T13:50:20.851Z,97986.75
2023-11-01T13:52:54.639Z,97983.78
2023-11-01T13:55:50.227Z,97972.56
2023-11-01T13:58:32.048Z,97966.59
2023-11-01T14:01:16.780Z,97960.25
2023-11-01T14:03:52.460Z,97960.25
2023-11-01T14:06:26.165Z,97957.81
2023-11-01T14:08:59.234Z,97959.97
2023-11-01T14:11:33.044Z,97961.91
2023-11-01T14:14:06.573Z,97966.34
2023-11-01T14:16:43.197Z,97952.63
2023-11-01T14:19:16.220Z,97956.19
2023-11-01T14:21:49.235Z,97961.00
2023-11-01T14:24:22.605Z,97952.59
2023-11-01T14:26:55.569Z,97947.69
2023-11-01T14:29:28.562Z,97941.72
2023-11-01T14:32:03.014Z,97942.94
2023-11-01T14:34:36.098Z,97943.16
2023-11-01T14:37:09.169Z,97936.13
2023-11-01T14:39:44.134Z,97934.53
2023-11-01T14:42:17.243Z,97936.94
2023-11-01T14:44:51.021Z,97927.88
2023-11-01T14:47:25.391Z,97918.44
2023-11-01T14:49:58.329Z,97922.44
2023-11-01T14:52:31.283Z,97908.88
2023-11-01T14:55:05.099Z,97912.47
2023-11-01T14:57:38.453Z,97901.97
2023-11-01T15:00:14.139Z,97898.69
2023-11-01T15:02:49.757Z,97889.88
2023-11-01T15:05:24.919Z,97878.22
2023-11-01T15:07:58.363Z,97878.63
2023-11-01T15:10:31.342Z,97879.50
2023-11-01T15:13:04.365Z,97889.06
2023-11-01T15:15:37.167Z,97887.03
2023-11-01T15:18:11.496Z,97892.69
2023-11-01T15:20:44.436Z,97895.03
2023-11-01T15:23:17.416Z,97896.88
2023-11-01T15:25:50.463Z,97894.94
2023-11-01T15:28:23.438Z,97889.09
2023-11-01T15:30:56.414Z,97888.63
2023-11-01T15:33:32.700Z,97880.22
2023-11-01T15:36:06.632Z,97887.28
2023-11-01T15:38:39.529Z,97887.88
2023-11-01T15:41:12.495Z,97884.69
2023-11-01T15:43:45.423Z,97869.28
2023-11-01T15:46:18.395Z,97875.59
2023-11-01T15:48:52.758Z,97882.00
2023-11-01T15:51:25.634Z,97873.94
2023-11-01T15:53:58.805Z,97886.97
2023-11-01T15:56:31.699Z,97892.03
2023-11-01T15:59:04.650Z,97888.16
2023-11-01T16:01:37.831Z,97888.63
2023-11-01T16:04:12.613Z,97892.88
2023-11-01T16:06:45.625Z,97884.66
2023-11-01T16:09:19.191Z,97885.81
2023-11-01T16:11:52.116Z,97878.84
2023-11-01T16:14:26.140Z,97879.94
2023-11-01T16:16:59.277Z,97876.84
2023-11-01T16:19:33.535Z,97884.38
2023-11-01T16:22:06.464Z,97883.03
2023-11-01T16:24:39.675Z,97892.31
2023-11-01T16:27:12.649Z,97889.97
2023-11-01T16:29:46.195Z,97893.09
2023-11-01T16:32:19.640Z,97892.81
2023-11-01T16:34:54.096Z,97888.94
2023-11-01T16:37:27.168Z,97884.88
2023-11-01T16:40:00.277Z,97883.69
2023-11-01T16:42:33.811Z,97876.78
2023-11-01T16:45:07.949Z,97875.75
2023-11-01T16:47:43.181Z,97868.06
2023-11-01T16:50:17.512Z,97870.50
2023-11-01T16:52:50.428Z,97862.22
2023-11-01T16:55:23.407Z,97877.84
2023-11-01T16:57:57.797Z,97883.09
2023-11-01T17:00:31.904Z,97883.53
2023-11-01T17:03:09.055Z,97885.53
2023-11-01T17:05:43.482Z,97886.88
2023-11-01T17:08:16.708Z,97894.50
2023-11-01T17:10:49.768Z,97883.97
2023-11-01T17:13:24.813Z,97888.63
2023-11-01T17:15:59.138Z,97889.69
2023-11-01T17:18:32.206Z,97890.28
2023-11-01T17:21:07.259Z,97890.97
2023-11-01T17:23:45.863Z,97896.97
2023-11-01T17:26:29.670Z,97889.03
2023-11-01T17:29:02.835Z,97891.50
2023-11-01T17:31:40.464Z,97891.78
2023-11-01T17:34:15.460Z,97889.56
2023-11-01T17:36:49.744Z,97890.44
2023-11-01T17:39:22.730Z,97893.59
2023-11-01T17:41:59.804Z,97893.69
2023-11-01T17:44:35.660Z,97899.78
2023-11-01T17:47:10.190Z,97890.88
2023-11-01T17:49:52.600Z,97890.72
2023-11-01T17:52:33.961Z,97874.47
2023-11-01T17:55:09.350Z,97880.00
2023-11-01T17:57:42.185Z,97884.81
2023-11-01T18:00:16.239Z,97876.88
2023-11-01T18:03:19.212Z,97871.91
2023-11-01T18:05:53.717Z,97864.69
2023-11-01T18:08:32.492Z,97870.44
2023-11-01T18:11:08.530Z,97869.84
2023-11-01T18:13:43.777Z,97870.00
2023-11-01T18:16:25.107Z,97874.84
2023-11-01T18:18:58.248Z,97869.13
2023-11-01T18:21:34.769Z,97866.50
2023-11-01T18:24:12.791Z,97857.03
2023-11-01T18:26:45.911Z,97870.09
2023-11-01T18:29:19.683Z,97857.56
2023-11-01T18:31:52.763Z,97862.56
2023-11-01T18:34:25.766Z,97860.25
2023-11-01T18:37:00.188Z,97851.47
2023-11-01T18:39:36.119Z,97847.91
2023-11-01T18:42:10.749Z,97848.13
2023-11-01T18:44:45.288Z,97835.16
2023-11-01T18:47:23.189Z,97840.06
2023-11-01T18:50:01.139Z,97844.16
2023-11-01T18:52:34.694Z,97849.13
2023-11-01T18:55:11.234Z,97847.75
2023-11-01T18:57:44.258Z,97836.13
2023-11-01T19:00:25.646Z,97847.31
2023-11-01T19:03:07.645Z,97847.13
2023-11-01T19:05:42.645Z,97846.81
2023-11-01T19:08:17.982Z,97852.09
2023-11-01T19:10:54.875Z,97836.91
2023-11-01T19:13:30.419Z,97847.47
2023-11-01T19:16:18.166Z,97847.53
2023-11-01T19:18:51.760Z,97838.56
2023-11-01T19:21:24.877Z,97838.31
2023-11-01T19:23:57.832Z,97844.38
2023-11-01T19:26:33.012Z,97832.31
2023-11-01T19:29:06.284Z,97834.31
2023-11-01T19:31:39.275Z,97851.06
2023-11-01T19:34:12.333Z,97857.94
2023-11-01T19:36:45.273Z,97840.38
2023-11-01T19:39:18.974Z,97842.09
2023-11-01T19:42:06.404Z,97838.06
2023-11-01T19:44:40.289Z,97845.38
2023-11-01T19:47:13.461Z,97842.59
2023-11-01T19:49:46.504Z,97845.47
2023-11-01T19:52:19.495Z,97844.53
2023-11-01T19:55:08.722Z,97842.06
2023-11-01T19:57:45.808Z,97843.31
2023-11-01T20:00:19.614Z,97842.66
2023-11-01T20:02:52.880Z,97842.81
2023-11-01T20:05:25.779Z,97831.16
2023-11-01T20:08:00.985Z,97831.03
2023-11-01T20:10:33.995Z,97828.41
2023-11-01T20:13:08.295Z,97825.72
2023-11-01T20:15:43.924Z,97822.72
2023-11-01T20:18:17.371Z,97822.41
2023-11-01T20:20:50.626Z,97828.66
2023-11-01T20:23:23.495Z,97830.81
2023-11-01T20:25:56.487Z,97834.22
2023-11-01T20:28:30.723Z,97825.50
2023-11-01T20:31:03.934Z,97823.41
2023-11-01T20:33:37.143Z,97828.00
2023-11-01T20:36:10.606Z,97823.66
2023-11-01T20:38:44.471Z,97821.00
2023-11-01T20:41:19.541Z,97819.78
2023-11-01T20:43:53.758Z,97810.28
2023-11-01T20:46:26.645Z,97811.44
2023-11-01T20:48:59.822Z,97813.34
2023-11-01T20:51:32.757Z,97798.88
2023-11-01T20:54:21.046Z,97792.22
2023-11-01T20:56:54.075Z,97798.88
2023-11-01T20:59:28.413Z,97781.78
2023-11-01T21:02:01.420Z,97777.50
2023-11-01T21:04:34.790Z,97786.38
2023-11-01T21:07:08.964Z,97773.19
2023-11-01T21:09:41.930Z,97754.22
2023-11-01T21:12:15.022Z,97757.16
2023-11-01T21:14:49.444Z,97762.78
2023-11-01T21:17:23.629Z,97760.56
2023-11-01T21:19:56.561Z,97774.13
2023-11-01T21:22:34.122Z,97769.47
2023-11-01T21:25:07.805Z,97763.19
2023-11-01T21:27:40.715Z,97777.47
2023-11-01T21:30:15.711Z,97765.31
2023-11-01T21:32:50.005Z,97756.97
2023-11-01T21:35:31.734Z,97753.88
2023-11-01T21:38:09.662Z,97760.31
2023-11-01T21:41:47.941Z,97763.94
2023-11-01T21:44:36.537Z,97760.78
2023-11-01T21:47:14.238Z,97755.19
2023-11-01T21:49:47.874Z,97759.50
2023-11-01T21:52:29.753Z,97769.28
2023-11-01T21:55:35.092Z,97771.22
2023-11-01T21:58:20.491Z,97775.22
2023-11-01T22:01:00.310Z,97769.03
2023-11-01T22:03:42.611Z,97778.75
2023-11-01T22:06:18.473Z,97771.75
2023-11-01T22:09:00.662Z,97758.78
2023-11-01T22:11:36.512Z,97760.28
2023-11-01T22:14:12.775Z,97756.03
2023-11-01T22:16:46.401Z,97750.94
2023-11-01T22:19:44.442Z,97754.03
2023-11-01T22:22:59.526Z,97748.25
2023-11-01T22:25:44.114Z,97755.88
2023-11-01T22:29:22.460Z,97753.59
2023-11-01T22:31:56.756Z,97760.63
2023-11-01T22:34:32.160Z,97768.47
2023-11-01T22:37:09.740Z,97756.00
2023-11-01T22:39:48.825Z,97749.53
2023-11-01T22:42:31.607Z,97729.31
2023-11-01T22:45:05.674Z,97722.50
2023-11-01T22:47:41.970Z,97721.56
2023-11-01T22:50:17.004Z,97703.44
2023-11-01T22:52:53.055Z,97710.16
2023-11-01T22:55:40.553Z,97706.72
2023-11-01T22:58:16.185Z,97719.31
2023-11-01T23:00:52.380Z,97710.00
2023-11-01T23:03:27.870Z,97708.13
2023-11-01T23:06:05.522Z,97696.03
2023-11-01T23:08:38.688Z,97691.03
2023-11-01T23:11:16.112Z,97682.69
2023-11-01T23:14:13.410Z,97678.81
2023-11-01T23:16:46.952Z,97667.00
2023-11-01T23:19:27.075Z,97671.81
2023-11-01T23:22:01.824Z,97654.31
2023-11-01T23:24:35.937Z,97664.41
2023-11-01T23:27:10.024Z,97665.31
2023-11-01T23:29:43.336Z,97657.69
2023-11-01T23:32:16.944Z,97662.34
2023-11-01T23:35:14.311Z,97653.47
2023-11-01T23:37:48.653Z,97637.84
2023-11-01T23:40:33.871Z,97628.53
2023-11-01T23:43:07.086Z,97622.16
2023-11-01T23:46:09.517Z,97611.53
2023-11-01T23:48:44.541Z,97615.03
2023-11-01T23:51:54.163Z,97615.41
2023-11-01T23:54:29.170Z,97615.09
2023-11-01T23:57:02.139Z,97631.75
2023-11-01T23:59:35.151Z,97611.63
